createdAt,value
2022-08-16T00:00:48.752Z,99398.63
2022-08-16T00:03:40.911Z,99358.47
2022-08-16T00:06:29.968Z,99399.47
2022-08-16T00:09:19.945Z,99396.75
2022-08-16T00:12:08.672Z,99393.25
2022-08-16T00:14:58.069Z,99401.38
2022-08-16T00:17:56.246Z,99378.00
2022-08-16T00:20:46.515Z,99397.28
2022-08-16T00:23:46.121Z,99402.97
2022-08-16T00:26:43.945Z,99397.03
2022-08-16T00:29:33.953Z,99404.63
2022-08-16T00:32:22.970Z,99398.34
2022-08-16T00:35:15.518Z,99399.75
2022-08-16T00:38:41.045Z,99394.59
2022-08-16T00:41:13.975Z,99400.53
2022-08-16T00:44:11.131Z,99399.19
2022-08-16T00:47:06.509Z,99393.75
2022-08-16T00:49:56.274Z,99399.72
2022-08-16T00:52:50.458Z,99401.66
2022-08-16T00:55:43.114Z,99397.59
2022-08-16T00:58:35.076Z,99406.06
2022-08-16T01:01:25.263Z,99408.25
2022-08-16T01:04:25.744Z,99418.84
2022-08-16T01:07:19.251Z,99413.41
2022-08-16T01:10:16.414Z,99406.09
2022-08-16T01:13:08.444Z,99408.81
2022-08-16T01:16:03.116Z,99409.63
2022-08-16T01:18:56.549Z,99414.00
2022-08-16T01:21:51.635Z,99394.69
2022-08-16T01:24:54.049Z,99405.56
2022-08-16T01:27:47.690Z,99398.25
2022-08-16T01:30:39.746Z,99407.47
2022-08-16T01:33:33.276Z,99400.16
2022-08-16T01:36:22.191Z,99411.53
2022-08-16T01:39:17.767Z,99408.56
2022-08-16T01:42:13.060Z,99410.19
2022-08-16T01:45:01.864Z,99412.06
2022-08-16T01:47:52.575Z,99416.94
2022-08-16T01:51:08.140Z,99410.44
2022-08-16T01:53:54.461Z,99414.47
2022-08-16T01:56:44.301Z,99414.75
2022-08-16T01:59:35.786Z,99407.72
2022-08-16T02:02:27.346Z,99403.63
2022-08-16T02:05:17.227Z,99404.72
2022-08-16T02:08:07.371Z,99404.44
2022-08-16T02:11:16.389Z,99399.81
2022-08-16T02:14:05.695Z,99399.53
2022-08-16T02:17:11.890Z,99397.38
2022-08-16T02:20:00.933Z,99405.78
2022-08-16T02:22:49.623Z,99368.00
2022-08-16T02:25:52.391Z,99405.72
2022-08-16T02:28:45.333Z,99400.31
2022-08-16T02:32:03.896Z,99402.22
2022-08-16T02:34:45.966Z,99401.63
2022-08-16T02:37:51.637Z,99399.25
2022-08-16T02:40:42.250Z,99398.16
2022-08-16T02:43:34.229Z,99395.97
2022-08-16T02:46:30.182Z,99385.38
2022-08-16T02:49:22.241Z,99394.88
2022-08-16T02:52:32.184Z,99383.16
2022-08-16T02:55:40.973Z,99347.56
2022-08-16T02:58:32.529Z,99379.91
2022-08-16T03:01:25.115Z,99372.03
2022-08-16T03:04:41.645Z,99378.00
2022-08-16T03:07:36.958Z,99372.84
2022-08-16T03:10:33.663Z,99368.47
2022-08-16T03:13:23.776Z,99353.59
2022-08-16T03:16:32.874Z,99354.41
2022-08-16T03:19:21.764Z,99348.91
2022-08-16T03:22:10.772Z,99362.25
2022-08-16T03:25:02.755Z,99364.69
2022-08-16T03:27:52.053Z,99367.69
2022-08-16T03:30:40.621Z,99361.94
2022-08-16T03:33:29.862Z,99357.03
2022-08-16T03:36:30.153Z,99357.59
2022-08-16T03:39:20.467Z,99365.44
2022-08-16T03:42:10.584Z,99366.78
2022-08-16T03:45:03.977Z,99368.72
2022-08-16T03:47:59.882Z,99349.91
2022-08-16T03:51:00.176Z,99375.44
2022-08-16T03:54:00.879Z,99365.16
2022-08-16T03:56:56.678Z,99367.88
2022-08-16T03:59:48.066Z,99366.00
2022-08-16T04:02:40.279Z,99366.75
2022-08-16T04:05:29.000Z,99373.53
2022-08-16T04:08:23.164Z,99368.38
2022-08-16T04:11:16.391Z,99365.97
2022-08-16T04:14:32.443Z,99366.50
2022-08-16T04:17:16.021Z,99373.56
2022-08-16T04:20:23.208Z,99378.19
2022-08-16T04:23:16.640Z,99380.59
2022-08-16T04:26:06.051Z,99377.09
2022-08-16T04:29:14.559Z,99371.75
2022-08-16T04:32:03.172Z,99379.88
2022-08-16T04:34:53.137Z,99385.84
2022-08-16T04:37:42.613Z,99386.38
2022-08-16T04:40:31.292Z,99387.69
2022-08-16T04:43:20.602Z,99381.44
2022-08-16T04:46:33.216Z,99389.84
2022-08-16T04:49:17.829Z,99392.56
2022-08-16T04:52:33.719Z,99397.50
2022-08-16T04:55:20.168Z,99397.75
2022-08-16T04:58:45.844Z,99423.28
2022-08-16T05:01:18.652Z,99402.41
2022-08-16T05:04:19.661Z,99419.28
2022-08-16T05:07:15.020Z,99424.16
2022-08-16T05:10:19.517Z,99427.13
2022-08-16T05:13:15.745Z,99421.47
2022-08-16T05:16:04.926Z,99424.19
2022-08-16T05:18:56.882Z,99415.78
2022-08-16T05:21:47.201Z,99429.34
2022-08-16T05:24:37.262Z,99432.63
2022-08-16T05:27:26.343Z,99433.69
2022-08-16T05:30:36.793Z,99434.28
2022-08-16T05:33:25.780Z,99419.06
2022-08-16T05:36:15.827Z,99443.25
2022-08-16T05:39:10.058Z,99432.69
2022-08-16T05:41:59.963Z,99439.47
2022-08-16T05:44:49.331Z,99438.13
2022-08-16T05:47:43.290Z,99283.66
2022-08-16T05:50:34.502Z,99438.41
2022-08-16T05:53:24.394Z,99410.44
2022-08-16T05:56:19.274Z,99440.84
2022-08-16T05:59:09.386Z,99450.06
2022-08-16T06:01:59.640Z,99291.00
2022-08-16T06:04:48.295Z,99455.22
2022-08-16T06:07:37.406Z,99453.56
2022-08-16T06:10:33.082Z,99455.72
2022-08-16T06:13:22.160Z,99459.00
2022-08-16T06:16:17.911Z,99456.28
2022-08-16T06:19:07.358Z,99460.03
2022-08-16T06:21:57.548Z,99470.63
2022-08-16T06:24:53.620Z,99467.91
2022-08-16T06:27:57.107Z,99467.03
2022-08-16T06:30:47.751Z,99469.44
2022-08-16T06:33:41.741Z,99477.97
2022-08-16T06:36:32.193Z,99470.53
2022-08-16T06:39:21.109Z,99477.41
2022-08-16T06:42:09.699Z,99474.56
2022-08-16T06:44:58.235Z,99461.03
2022-08-16T06:47:53.590Z,99459.72
2022-08-16T06:50:48.114Z,99458.41
2022-08-16T06:53:37.029Z,99464.50
2022-08-16T06:56:25.680Z,99445.50
2022-08-16T06:59:14.561Z,99466.47
2022-08-16T07:02:03.579Z,99459.84
2022-08-16T07:04:53.126Z,99452.63
2022-08-16T07:07:44.507Z,99475.34
2022-08-16T07:10:33.116Z,99483.84
2022-08-16T07:13:58.545Z,99476.84
2022-08-16T07:16:30.462Z,99457.25
2022-08-16T07:19:20.116Z,99484.50
2022-08-16T07:22:38.410Z,99477.50
2022-08-16T07:25:18.651Z,99475.41
2022-08-16T07:28:07.233Z,99466.06
2022-08-16T07:31:03.082Z,99471.84
2022-08-16T07:33:54.999Z,99496.47
2022-08-16T07:36:45.231Z,99471.41
2022-08-16T07:39:45.757Z,99476.94
2022-08-16T07:42:36.315Z,99475.88
2022-08-16T07:45:25.157Z,99478.16
2022-08-16T07:48:14.128Z,99479.47
2022-08-16T07:51:06.519Z,99477.00
2022-08-16T07:54:09.009Z,99477.84
2022-08-16T07:56:58.312Z,99477.22
2022-08-16T07:59:48.264Z,99488.16
2022-08-16T08:02:38.660Z,99492.38
2022-08-16T08:05:35.669Z,99472.00
2022-08-16T08:08:49.240Z,99496.59
2022-08-16T08:11:35.107Z,99502.41
2022-08-16T08:14:30.083Z,99499.34
2022-08-16T08:17:20.375Z,99498.75
2022-08-16T08:20:11.412Z,99496.28
2022-08-16T08:23:01.543Z,99497.63
2022-08-16T08:25:53.419Z,99501.97
2022-08-16T08:28:43.369Z,99498.84
2022-08-16T08:31:32.025Z,99503.22
2022-08-16T08:34:24.928Z,99507.09
2022-08-16T08:37:13.514Z,99502.88
2022-08-16T08:40:02.534Z,99497.84
2022-08-16T08:42:52.154Z,99498.50
2022-08-16T08:45:49.326Z,99492.69
2022-08-16T08:48:43.864Z,99491.00
2022-08-16T08:51:36.951Z,99483.63
2022-08-16T08:54:26.290Z,99505.94
2022-08-16T08:57:18.559Z,99514.41
2022-08-16T09:00:14.189Z,99516.78
2022-08-16T09:03:04.365Z,99518.84
2022-08-16T09:05:53.286Z,99501.34
2022-08-16T09:08:47.308Z,99511.34
2022-08-16T09:11:40.979Z,99487.91
2022-08-16T09:14:31.031Z,99518.63
2022-08-16T09:17:45.567Z,99507.97
2022-08-16T09:20:29.276Z,99516.44
2022-08-16T09:23:18.366Z,99519.00
2022-08-16T09:26:44.693Z,99518.88
2022-08-16T09:29:38.368Z,99528.22
2022-08-16T09:32:30.622Z,99511.94
2022-08-16T09:35:19.966Z,99517.28
2022-08-16T09:38:09.788Z,99507.75
2022-08-16T09:41:01.027Z,99513.69
2022-08-16T09:43:58.216Z,99512.56
2022-08-16T09:46:49.944Z,99510.03
2022-08-16T09:49:41.125Z,99515.78
2022-08-16T09:52:29.938Z,99509.66
2022-08-16T09:55:19.294Z,99513.16
2022-08-16T09:58:10.630Z,99515.47
2022-08-16T10:01:01.207Z,99518.25
2022-08-16T10:04:02.084Z,99516.22
2022-08-16T10:06:52.075Z,99508.19
2022-08-16T10:09:44.998Z,99501.06
2022-08-16T10:13:01.218Z,99497.44
2022-08-16T10:15:55.488Z,99504.66
2022-08-16T10:19:06.229Z,99507.88
2022-08-16T10:21:56.542Z,99503.69
2022-08-16T10:24:55.613Z,99499.38
2022-08-16T10:27:53.335Z,99497.44
2022-08-16T10:30:45.732Z,99426.03
2022-08-16T10:33:35.134Z,99498.25
2022-08-16T10:36:38.102Z,99476.94
2022-08-16T10:39:40.808Z,99501.16
2022-08-16T10:42:30.813Z,99503.72
2022-08-16T10:45:19.894Z,99504.16
2022-08-16T10:48:27.180Z,99511.78
2022-08-16T10:51:17.191Z,99502.81
2022-08-16T10:54:29.424Z,99508.91
2022-08-16T10:57:17.513Z,99513.03
2022-08-16T11:00:20.805Z,99508.91
2022-08-16T11:06:26.625Z,99491.63
2022-08-16T11:09:25.607Z,99496.22
2022-08-16T11:12:17.395Z,99503.84
2022-08-16T11:15:17.185Z,99504.31
2022-08-16T11:19:03.741Z,99508.44
2022-08-16T11:21:28.828Z,99475.28
2022-08-16T11:24:41.891Z,99512.31
2022-08-16T11:27:32.683Z,99508.88
2022-08-16T11:30:28.394Z,99507.97
2022-08-16T11:36:37.121Z,99409.75
2022-08-16T11:39:27.215Z,99502.34
2022-08-16T11:42:28.690Z,99498.97
2022-08-16T11:45:19.910Z,99499.78
2022-08-16T11:48:12.284Z,99451.34
2022-08-16T11:51:01.784Z,99494.38
2022-08-16T11:53:50.476Z,99485.72
2022-08-16T11:56:53.243Z,99464.28
2022-08-16T11:59:46.308Z,99467.34
2022-08-16T12:02:38.151Z,99492.66
2022-08-16T12:05:35.592Z,99484.81
2022-08-16T12:08:26.101Z,99466.34
2022-08-16T12:11:16.636Z,99462.50
2022-08-16T12:14:08.012Z,99483.59
2022-08-16T12:16:57.093Z,99492.66
2022-08-16T12:19:46.069Z,99475.53
2022-08-16T12:22:36.731Z,99466.63
2022-08-16T12:25:27.229Z,99472.50
2022-08-16T12:28:16.742Z,99477.69
2022-08-16T12:31:26.781Z,99477.50
2022-08-16T12:34:19.664Z,99470.00
2022-08-16T12:37:18.833Z,99472.59
2022-08-16T12:40:23.829Z,99470.63
2022-08-16T12:43:14.801Z,99459.16
2022-08-16T12:46:03.811Z,99449.19
2022-08-16T12:48:58.430Z,99471.84
2022-08-16T12:51:59.304Z,99463.47
2022-08-16T12:54:54.880Z,99460.00
2022-08-16T12:57:44.422Z,99455.78
2022-08-16T13:00:48.421Z,99432.28
2022-08-16T13:03:40.643Z,99455.94
2022-08-16T13:06:33.474Z,99459.25
2022-08-16T13:09:26.832Z,99441.25
2022-08-16T13:12:20.064Z,99445.09
2022-08-16T13:15:12.375Z,99453.16
2022-08-16T13:18:01.068Z,99427.41
2022-08-16T13:20:59.787Z,99441.72
2022-08-16T13:23:49.742Z,99441.56
2022-08-16T13:26:39.844Z,99448.81
2022-08-16T13:29:40.023Z,99450.38
2022-08-16T13:32:40.042Z,99423.84
2022-08-16T13:35:33.020Z,99436.56
2022-08-16T13:38:24.993Z,99438.53
2022-08-16T13:41:15.668Z,99440.81
2022-08-16T13:44:09.509Z,99437.84
2022-08-16T13:46:59.551Z,99433.19
2022-08-16T13:49:48.512Z,99434.00
2022-08-16T13:52:39.774Z,99437.69
2022-08-16T13:55:29.242Z,99433.19
2022-08-16T13:58:37.471Z,99425.63
2022-08-16T14:01:30.016Z,99436.13
2022-08-16T14:04:26.481Z,99423.84
2022-08-16T14:07:19.929Z,99431.09
2022-08-16T14:10:15.293Z,99427.00
2022-08-16T14:13:04.043Z,99420.41
2022-08-16T14:15:56.139Z,99410.91
2022-08-16T14:18:44.791Z,99419.41
2022-08-16T14:21:35.907Z,99405.03
2022-08-16T14:24:30.299Z,99421.94
2022-08-16T14:27:21.288Z,99417.41
2022-08-16T14:30:15.366Z,99417.97
2022-08-16T14:33:05.852Z,99416.41
2022-08-16T14:35:55.362Z,99322.34
2022-08-16T14:38:44.017Z,99410.38
2022-08-16T14:41:32.872Z,99413.84
2022-08-16T14:44:23.077Z,99408.91
2022-08-16T14:47:12.014Z,99370.41
2022-08-16T14:50:02.045Z,99398.09
2022-08-16T14:52:56.246Z,99406.78
2022-08-16T14:55:45.156Z,99411.97
2022-08-16T14:58:36.766Z,99405.34
2022-08-16T15:01:58.134Z,99401.66
2022-08-16T15:04:40.105Z,99395.84
2022-08-16T15:07:35.010Z,99403.09
2022-08-16T15:10:29.185Z,99401.31
2022-08-16T15:13:18.387Z,99391.03
2022-08-16T15:16:08.459Z,99387.47
2022-08-16T15:18:59.093Z,99394.44
2022-08-16T15:21:53.702Z,99395.19
2022-08-16T15:24:44.298Z,99391.06
2022-08-16T15:27:36.265Z,99394.81
2022-08-16T15:30:57.874Z,99396.41
2022-08-16T15:33:42.590Z,99398.91
2022-08-16T15:36:33.164Z,99395.38
2022-08-16T15:39:30.526Z,99395.81
2022-08-16T15:42:29.665Z,99357.63
2022-08-16T15:45:38.903Z,99395.81
2022-08-16T15:48:32.692Z,99393.31
2022-08-16T15:51:21.276Z,99295.84
2022-08-16T15:54:29.057Z,99383.84
2022-08-16T15:57:19.172Z,99390.16
2022-08-16T16:00:14.912Z,99387.28
2022-08-16T16:03:08.769Z,99393.94
2022-08-16T16:06:00.099Z,99392.03
2022-08-16T16:08:50.025Z,99390.84
2022-08-16T16:11:40.877Z,99391.84
2022-08-16T16:14:29.938Z,99386.31
2022-08-16T16:17:21.131Z,99388.19
2022-08-16T16:20:14.494Z,99384.25
2022-08-16T16:23:10.372Z,99378.41
2022-08-16T16:25:59.909Z,99378.53
2022-08-16T16:29:08.229Z,99375.03
2022-08-16T16:32:05.710Z,99380.97
2022-08-16T16:34:57.766Z,99373.53
2022-08-16T16:37:46.436Z,99391.34
2022-08-16T16:40:46.171Z,99374.00
2022-08-16T16:43:44.371Z,99374.75
2022-08-16T16:46:41.326Z,99378.69
2022-08-16T16:49:32.917Z,99380.66
2022-08-16T16:52:43.422Z,99379.72
2022-08-16T16:55:34.277Z,99372.94
2022-08-16T16:58:54.033Z,99375.13
2022-08-16T17:01:59.259Z,99371.00
2022-08-16T17:04:53.240Z,99373.66
2022-08-16T17:07:43.177Z,99372.66
2022-08-16T17:13:40.489Z,99371.22
2022-08-16T17:16:32.903Z,99372.25
2022-08-16T17:19:23.833Z,99359.75
2022-08-16T17:22:15.455Z,99365.78
2022-08-16T17:25:07.792Z,99358.84
2022-08-16T17:27:56.682Z,99360.22
2022-08-16T17:30:47.333Z,99372.66
2022-08-16T17:33:36.893Z,99367.16
2022-08-16T17:36:36.015Z,99366.13
2022-08-16T17:39:25.337Z,99367.00
2022-08-16T17:39:26.048Z,99369.53
2022-08-16T17:42:19.787Z,99366.88
2022-08-16T17:45:11.161Z,99367.94
2022-08-16T17:47:59.937Z,99374.63
2022-08-16T17:50:49.865Z,99379.00
2022-08-16T17:53:48.443Z,99372.56
2022-08-16T17:56:38.942Z,99377.63
2022-08-16T17:59:29.271Z,99376.72
2022-08-16T18:02:43.924Z,99356.69
2022-08-16T18:05:28.405Z,99249.41
2022-08-16T18:08:17.361Z,99366.66
2022-08-16T18:11:06.212Z,99371.09
2022-08-16T18:13:56.515Z,99383.19
2022-08-16T18:16:47.981Z,99352.66
2022-08-16T18:19:37.007Z,99376.78
2022-08-16T18:22:30.172Z,99379.50
2022-08-16T18:25:20.705Z,99376.06
2022-08-16T18:28:09.283Z,99377.69
2022-08-16T18:31:01.131Z,99364.75
2022-08-16T18:33:55.990Z,99378.25
2022-08-16T18:36:44.807Z,99364.25
2022-08-16T18:39:35.267Z,99373.22
2022-08-16T18:42:23.887Z,99372.84
2022-08-16T18:45:13.042Z,99364.78
2022-08-16T18:48:01.684Z,99379.25
2022-08-16T18:50:58.813Z,99370.03
2022-08-16T18:53:53.625Z,99381.75
2022-08-16T18:56:56.499Z,99375.78
2022-08-16T18:59:46.229Z,99372.72
2022-08-16T19:02:56.098Z,99372.56
2022-08-16T19:05:45.163Z,99391.50
2022-08-16T19:08:35.816Z,99389.38
2022-08-16T19:11:25.895Z,99383.03
2022-08-16T19:14:14.635Z,99388.69
2022-08-16T19:17:03.192Z,99389.47
2022-08-16T19:19:51.774Z,99401.41
2022-08-16T19:25:54.484Z,99404.47
2022-08-16T19:28:58.159Z,99400.06
2022-08-16T19:31:47.754Z,99396.44
2022-08-16T19:34:36.280Z,99394.63
2022-08-16T19:37:25.256Z,99406.59
2022-08-16T19:40:37.784Z,99406.59
2022-08-16T19:43:24.649Z,99413.41
2022-08-16T19:46:13.197Z,99425.56
2022-08-16T19:49:01.763Z,99417.69
2022-08-16T19:51:51.543Z,99414.28
2022-08-16T19:54:41.222Z,99411.53
2022-08-16T19:57:30.385Z,99420.38
2022-08-16T20:00:20.280Z,99417.25
2022-08-16T20:03:12.353Z,99424.88
2022-08-16T20:06:01.009Z,99423.34
2022-08-16T20:08:49.574Z,99422.25
2022-08-16T20:11:38.145Z,99425.00
2022-08-16T20:14:26.828Z,99428.44
2022-08-16T20:17:17.279Z,99418.53
2022-08-16T20:20:07.222Z,99427.34
2022-08-16T20:22:59.795Z,99433.00
2022-08-16T20:25:49.838Z,99395.50
2022-08-16T20:28:52.893Z,99405.41
2022-08-16T20:31:44.222Z,99429.53
2022-08-16T20:34:34.703Z,99432.16
2022-08-16T20:37:23.479Z,99416.81
2022-08-16T20:40:28.069Z,99341.50
2022-08-16T20:43:23.583Z,99437.41
2022-08-16T20:46:12.263Z,99437.59
2022-08-16T20:49:00.808Z,99432.41
2022-08-16T20:51:55.945Z,99439.00
2022-08-16T20:54:46.628Z,99450.03
2022-08-16T20:57:37.809Z,99436.50
2022-08-16T21:00:26.461Z,99435.75
2022-08-16T21:03:15.072Z,99437.91
2022-08-16T21:06:03.675Z,99445.38
2022-08-16T21:08:54.354Z,99443.31
2022-08-16T21:11:43.064Z,99444.53
2022-08-16T21:17:22.693Z,99435.13
2022-08-16T21:20:12.553Z,99438.28
2022-08-16T21:23:05.120Z,99422.72
2022-08-16T21:25:59.329Z,99433.56
2022-08-16T21:28:48.410Z,99439.84
2022-08-16T21:31:37.338Z,99443.00
2022-08-16T21:34:25.960Z,99449.41
2022-08-16T21:37:15.541Z,99447.94
2022-08-16T21:40:05.722Z,99448.25
2022-08-16T21:42:55.849Z,99437.63
2022-08-16T21:45:45.917Z,99441.16
2022-08-16T21:48:35.774Z,99450.47
2022-08-16T21:51:24.816Z,99448.91
2022-08-16T21:54:13.357Z,99446.09
2022-08-16T21:57:01.978Z,99454.28
2022-08-16T21:59:52.719Z,99433.13
2022-08-16T22:02:42.115Z,99251.75
2022-08-16T22:05:31.458Z,99461.66
2022-08-16T22:08:21.045Z,99448.19
2022-08-16T22:11:09.753Z,99455.84
2022-08-16T22:13:59.423Z,99453.88
2022-08-16T22:16:49.468Z,99464.84
2022-08-16T22:19:38.306Z,99457.25
2022-08-16T22:22:35.994Z,99448.91
2022-08-16T22:25:24.790Z,99455.44
2022-08-16T22:28:14.267Z,99446.81
2022-08-16T22:31:03.034Z,99438.63
2022-08-16T22:33:56.473Z,99437.91
2022-08-16T22:36:45.522Z,99455.09
2022-08-16T22:39:34.119Z,99446.75
2022-08-16T22:42:23.065Z,99399.63
2022-08-16T22:45:13.145Z,99455.69
2022-08-16T22:48:02.484Z,99452.66
2022-08-16T22:50:52.916Z,99461.44
2022-08-16T22:53:41.462Z,99449.97
2022-08-16T22:56:30.105Z,99451.69
2022-08-16T22:59:18.681Z,99442.31
2022-08-16T23:02:09.776Z,99453.00
2022-08-16T23:04:58.290Z,99457.34
2022-08-16T23:07:49.036Z,99470.88
2022-08-16T23:10:37.899Z,99464.44
2022-08-16T23:13:27.858Z,99456.31
2022-08-16T23:16:16.981Z,99429.44
2022-08-16T23:19:07.285Z,99440.47
2022-08-16T23:21:55.893Z,99429.13
2022-08-16T23:24:46.657Z,99444.31
2022-08-16T23:27:45.591Z,99388.47
2022-08-16T23:30:36.702Z,99438.88
2022-08-16T23:33:29.831Z,99291.47
2022-08-16T23:36:18.381Z,99426.84
2022-08-16T23:39:07.257Z,99425.91
2022-08-16T23:41:57.192Z,99424.06
2022-08-16T23:44:58.419Z,99425.25
2022-08-16T23:47:48.082Z,99415.72
2022-08-16T23:50:37.984Z,99414.09
2022-08-16T23:53:28.164Z,99418.91
2022-08-16T23:56:18.352Z,99306.19
2022-08-16T23:59:08.189Z,99404.50
